createdAt,value
2024-01-20T00:00:32.906Z,-1.50
2024-01-20T00:03:01.506Z,-1.60
2024-01-20T00:05:30.293Z,-1.60
2024-01-20T00:07:59.173Z,-1.60
2024-01-20T00:10:27.929Z,-1.60
2024-01-20T00:12:56.761Z,-1.60
2024-01-20T00:15:25.797Z,-1.50
2024-01-20T00:17:56.067Z,-1.50
2024-01-20T00:20:25.405Z,-1.40
2024-01-20T00:22:54.277Z,-1.40
2024-01-20T00:25:23.088Z,-1.30
2024-01-20T00:27:51.766Z,-1.30
2024-01-20T00:30:23.900Z,-1.30
2024-01-20T00:32:52.862Z,-1.30
2024-01-20T00:35:23.134Z,-1.30
2024-01-20T00:37:51.876Z,-1.20
2024-01-20T00:40:20.511Z,-1.20
2024-01-20T00:42:49.673Z,-1.10
2024-01-20T00:45:18.279Z,-1.10
2024-01-20T00:47:47.380Z,-1.00
2024-01-20T00:50:15.999Z,-1.10
2024-01-20T00:52:46.034Z,-1.00
2024-01-20T00:55:14.817Z,-0.90
2024-01-20T00:57:44.053Z,-0.90
2024-01-20T01:00:13.183Z,-0.90
2024-01-20T01:02:43.022Z,-0.80
2024-01-20T01:05:11.908Z,-0.80
2024-01-20T01:07:40.748Z,-0.80
2024-01-20T01:10:11.361Z,-0.70
2024-01-20T01:12:40.022Z,-0.70
2024-01-20T01:15:08.969Z,-0.70
2024-01-20T01:17:37.652Z,-0.60
2024-01-20T01:20:07.040Z,-0.60
2024-01-20T01:22:35.703Z,-0.60
2024-01-20T01:25:05.121Z,-0.60
2024-01-20T01:27:35.037Z,-0.60
2024-01-20T01:30:03.687Z,-0.60
2024-01-20T01:32:32.339Z,-0.50
2024-01-20T01:35:01.104Z,-0.50
2024-01-20T01:37:29.851Z,-0.50
2024-01-20T01:39:58.460Z,-0.50
2024-01-20T01:42:27.108Z,-0.50
2024-01-20T01:44:57.130Z,-0.50
2024-01-20T01:47:25.724Z,-0.50
2024-01-20T01:49:55.122Z,-0.50
2024-01-20T01:52:25.451Z,-0.60
2024-01-20T01:54:54.317Z,-0.60
2024-01-20T01:57:24.236Z,-0.60
2024-01-20T01:59:52.951Z,-0.60
2024-01-20T02:02:23.344Z,-0.60
2024-01-20T02:04:52.038Z,-0.60
2024-01-20T02:07:20.872Z,-0.70
2024-01-20T02:09:51.634Z,-0.70
2024-01-20T02:12:20.400Z,-0.80
2024-01-20T02:14:49.967Z,-0.80
2024-01-20T02:17:18.622Z,-0.80
2024-01-20T02:19:48.594Z,-0.90
2024-01-20T02:22:19.046Z,-0.90
2024-01-20T02:24:49.976Z,-0.90
2024-01-20T02:27:20.478Z,-0.90
2024-01-20T02:29:49.152Z,-0.90
2024-01-20T02:32:17.750Z,-1.00
2024-01-20T02:34:46.445Z,-1.00
2024-01-20T02:37:15.359Z,-1.00
2024-01-20T02:39:46.154Z,-1.00
2024-01-20T02:42:14.850Z,-1.10
2024-01-20T02:44:44.184Z,-1.10
2024-01-20T02:47:13.374Z,-1.10
2024-01-20T02:49:42.470Z,-1.10
2024-01-20T02:52:11.332Z,-1.10
2024-01-20T02:54:40.001Z,-1.20
2024-01-20T02:57:10.195Z,-1.20
2024-01-20T02:59:38.943Z,-1.20
2024-01-20T03:02:07.473Z,-1.20
2024-01-20T03:04:36.205Z,-1.20
2024-01-20T03:07:05.371Z,-1.20
2024-01-20T03:09:34.074Z,-1.20
2024-01-20T03:12:03.167Z,-1.10
2024-01-20T03:14:33.234Z,-1.10
2024-01-20T03:17:01.907Z,-1.10
2024-01-20T03:19:30.616Z,-1.00
2024-01-20T03:21:59.217Z,-1.00
2024-01-20T03:24:28.042Z,-1.00
2024-01-20T03:26:59.584Z,-1.10
2024-01-20T03:29:28.638Z,-1.00
2024-01-20T03:31:58.856Z,-1.10
2024-01-20T03:34:27.734Z,-1.10
2024-01-20T03:36:56.429Z,-1.00
2024-01-20T03:39:25.050Z,-1.00
2024-01-20T03:41:53.611Z,-1.00
2024-01-20T03:44:22.779Z,-1.10
2024-01-20T03:46:51.320Z,-1.00
2024-01-20T03:49:21.574Z,-1.10
2024-01-20T03:51:50.324Z,-1.10
2024-01-20T03:54:18.962Z,-1.10
2024-01-20T03:56:47.877Z,-1.10
2024-01-20T03:59:16.518Z,-1.20
2024-01-20T04:01:45.159Z,-1.10
2024-01-20T04:04:13.817Z,-1.10
2024-01-20T04:06:43.990Z,-1.00
2024-01-20T04:09:12.860Z,-1.00
2024-01-20T04:11:41.465Z,-0.90
2024-01-20T04:14:10.085Z,-0.90
2024-01-20T04:16:39.228Z,-0.80
2024-01-20T04:19:07.875Z,-0.80
2024-01-20T04:21:36.942Z,-0.80
2024-01-20T04:24:07.406Z,-0.70
2024-01-20T04:26:36.248Z,-0.80
2024-01-20T04:29:04.884Z,-0.70
2024-01-20T04:34:02.343Z,-0.70
2024-01-20T04:36:31.014Z,-0.70
2024-01-20T04:38:59.708Z,-0.70
2024-01-20T04:41:29.685Z,-0.70
2024-01-20T04:43:58.334Z,-0.70
2024-01-20T04:46:26.984Z,-0.80
2024-01-20T04:48:55.731Z,-0.70
2024-01-20T04:51:25.270Z,-0.80
2024-01-20T04:53:54.162Z,-0.70
2024-01-20T04:56:24.106Z,-0.70
2024-01-20T04:58:55.120Z,-0.70
2024-01-20T05:01:23.776Z,-0.70
2024-01-20T05:03:54.256Z,-0.70
2024-01-20T05:06:23.072Z,-0.60
2024-01-20T05:08:51.704Z,-0.70
2024-01-20T05:11:20.348Z,-0.70
2024-01-20T05:13:48.960Z,-0.70
2024-01-20T05:16:19.964Z,-0.70
2024-01-20T05:18:49.843Z,-0.70
2024-01-20T05:21:18.746Z,-0.70
2024-01-20T05:23:47.665Z,-0.70
2024-01-20T05:26:16.673Z,-0.80
2024-01-20T05:28:45.296Z,-0.80
2024-01-20T05:31:13.923Z,-0.80
2024-01-20T05:33:43.919Z,-0.80
2024-01-20T05:36:13.931Z,-0.80
2024-01-20T05:38:42.677Z,-0.80
2024-01-20T05:41:11.753Z,-0.80
2024-01-20T05:43:40.398Z,-0.90
2024-01-20T05:46:09.132Z,-1.00
2024-01-20T05:48:37.884Z,-1.00
2024-01-20T05:51:08.203Z,-1.00
2024-01-20T05:53:36.820Z,-1.00
2024-01-20T05:56:05.843Z,-1.00
2024-01-20T05:58:34.477Z,-1.00
2024-01-20T06:01:03.324Z,-1.00
2024-01-20T06:06:00.786Z,-0.90
2024-01-20T06:08:30.724Z,-1.00
2024-01-20T06:10:59.247Z,-1.00
2024-01-20T06:13:27.828Z,-1.00
2024-01-20T06:15:56.335Z,-1.00
2024-01-20T06:18:25.044Z,-1.00
2024-01-20T06:20:54.233Z,-1.00
2024-01-20T06:23:22.828Z,-1.00
2024-01-20T06:25:52.864Z,-1.10
2024-01-20T06:28:22.744Z,-1.20
2024-01-20T06:30:51.687Z,-1.20
2024-01-20T06:33:20.339Z,-1.20
2024-01-20T06:35:48.971Z,-1.30
2024-01-20T06:40:46.289Z,-1.30
2024-01-20T06:43:16.315Z,-1.30
2024-01-20T06:45:47.258Z,-1.30
2024-01-20T06:48:15.949Z,-1.20
2024-01-20T06:50:45.282Z,-1.30
2024-01-20T06:53:14.240Z,-1.30
2024-01-20T06:55:42.932Z,-1.30
2024-01-20T06:58:12.023Z,-1.30
2024-01-20T07:00:42.131Z,-1.30
2024-01-20T07:03:11.958Z,-1.30
2024-01-20T07:05:40.511Z,-1.30
2024-01-20T07:08:09.532Z,-1.30
2024-01-20T07:10:38.093Z,-1.30
2024-01-20T07:13:06.703Z,-1.30
2024-01-20T07:15:35.440Z,-1.30
2024-01-20T07:18:06.469Z,-1.20
2024-01-20T07:25:37.487Z,-1.20
2024-01-20T07:28:06.243Z,-1.10
2024-01-20T07:30:34.891Z,-1.10
2024-01-20T07:33:05.243Z,-1.00
2024-01-20T07:38:02.936Z,-1.00
2024-01-20T07:40:31.788Z,-1.10
2024-01-20T07:43:00.424Z,-0.90
2024-01-20T07:45:28.972Z,-0.90
2024-01-20T07:50:28.304Z,-0.80
2024-01-20T07:52:56.980Z,-0.70
2024-01-20T07:55:25.638Z,-0.80
2024-01-20T08:02:52.106Z,-0.60
2024-01-20T08:07:50.993Z,-0.60
2024-01-20T08:10:19.677Z,-0.60
2024-01-20T08:15:17.165Z,-0.50
2024-01-20T08:17:45.829Z,-0.50
2024-01-20T08:20:14.506Z,-0.40
2024-01-20T08:22:43.062Z,-0.40
2024-01-20T08:25:14.589Z,-0.30
2024-01-20T08:30:13.201Z,-0.20
2024-01-20T08:32:42.669Z,-0.20
2024-01-20T08:35:12.149Z,-0.20
2024-01-20T08:37:40.780Z,-0.20
2024-01-20T08:40:10.084Z,-0.10
2024-01-20T08:42:39.993Z,-0.10
2024-01-20T08:45:09.740Z,0.00
2024-01-20T08:47:38.500Z,0.10
2024-01-20T08:50:07.540Z,0.10
2024-01-20T08:52:36.198Z,0.00
2024-01-20T08:55:05.380Z,0.10
2024-01-20T08:57:34.737Z,0.20
2024-01-20T09:00:06.764Z,0.20
2024-01-20T09:02:35.608Z,0.30
2024-01-20T09:07:33.507Z,0.40
2024-01-20T09:10:03.977Z,0.30
2024-01-20T09:12:32.697Z,0.20
2024-01-20T09:15:01.461Z,0.20
2024-01-20T09:17:31.520Z,0.10
2024-01-20T09:20:00.356Z,0.10
2024-01-20T09:24:57.828Z,0.20
2024-01-20T09:27:26.464Z,0.20
2024-01-20T09:32:23.939Z,0.20
2024-01-20T09:34:53.896Z,0.20
2024-01-20T09:37:22.562Z,0.20
2024-01-20T09:42:20.629Z,0.40
2024-01-20T09:44:49.378Z,0.30
2024-01-20T09:47:18.114Z,0.40
2024-01-20T09:49:46.998Z,0.40
2024-01-20T09:52:27.881Z,0.50
2024-01-20T09:57:34.917Z,0.60
2024-01-20T10:00:06.008Z,0.50
2024-01-20T10:02:41.391Z,0.50
2024-01-20T10:05:12.337Z,0.50
2024-01-20T10:10:20.160Z,0.50
2024-01-20T10:12:52.671Z,0.50
2024-01-20T10:15:23.632Z,0.50
2024-01-20T10:17:52.374Z,0.50
2024-01-20T10:22:52.520Z,0.70
2024-01-20T10:25:21.506Z,0.70
2024-01-20T10:27:51.445Z,0.70
2024-01-20T10:30:22.064Z,0.70
2024-01-20T10:35:22.969Z,0.70
2024-01-20T10:37:55.859Z,0.70
2024-01-20T10:40:24.508Z,0.70
2024-01-20T10:42:58.080Z,0.70
2024-01-20T10:45:27.501Z,0.70
2024-01-20T10:48:06.882Z,0.80
2024-01-20T10:50:40.687Z,0.80
2024-01-20T10:53:10.775Z,0.80
2024-01-20T10:55:41.977Z,0.80
2024-01-20T10:58:12.532Z,0.80
2024-01-20T11:00:42.614Z,0.80
2024-01-20T11:03:11.685Z,1.00
2024-01-20T11:05:40.371Z,0.90
2024-01-20T11:08:10.775Z,1.10
2024-01-20T11:10:43.329Z,1.10
2024-01-20T11:13:13.353Z,1.20
2024-01-20T11:15:42.896Z,1.20
2024-01-20T11:18:18.920Z,1.20
2024-01-20T11:20:59.230Z,1.20
2024-01-20T11:23:29.685Z,1.30
2024-01-20T11:26:00.382Z,1.40
2024-01-20T11:28:32.901Z,1.40
2024-01-20T11:33:32.529Z,1.50
2024-01-20T11:36:02.385Z,1.40
2024-01-20T11:38:34.508Z,1.40
2024-01-20T11:41:04.476Z,1.50
2024-01-20T11:43:33.156Z,1.60
2024-01-20T11:46:03.513Z,1.50
2024-01-20T11:48:32.860Z,1.50
2024-01-20T11:51:02.790Z,1.50
2024-01-20T11:53:32.901Z,1.40
2024-01-20T11:56:04.176Z,1.40
2024-01-20T11:58:33.121Z,1.40
2024-01-20T12:01:02.767Z,1.30
2024-01-20T12:06:07.037Z,1.40
2024-01-20T12:08:38.113Z,1.40
2024-01-20T12:11:06.762Z,1.40
2024-01-20T12:13:36.777Z,1.40
2024-01-20T12:16:06.299Z,1.40
2024-01-20T12:21:05.344Z,1.40
2024-01-20T12:23:33.960Z,1.40
2024-01-20T12:26:03.865Z,1.50
2024-01-20T12:28:33.490Z,1.50
2024-01-20T12:33:31.088Z,1.50
2024-01-20T12:35:59.735Z,1.50
2024-01-20T12:38:28.239Z,1.40
2024-01-20T12:40:56.720Z,1.50
2024-01-20T12:43:26.621Z,1.50
2024-01-20T12:45:55.165Z,1.60
2024-01-20T12:48:23.813Z,1.60
2024-01-20T12:53:21.229Z,1.50
2024-01-20T12:55:49.881Z,1.50
2024-01-20T12:58:18.367Z,1.50
2024-01-20T13:00:48.544Z,1.60
2024-01-20T13:05:46.912Z,1.60
2024-01-20T13:08:15.426Z,1.60
2024-01-20T13:10:47.140Z,1.60
2024-01-20T13:13:15.738Z,1.60
2024-01-20T13:15:44.451Z,1.50
2024-01-20T13:20:46.392Z,1.50
2024-01-20T13:23:14.865Z,1.50
2024-01-20T13:25:43.349Z,1.50
2024-01-20T13:28:14.306Z,1.50
2024-01-20T13:30:43.126Z,1.50
2024-01-20T13:35:42.409Z,1.50
2024-01-20T13:38:11.170Z,1.60
2024-01-20T13:43:09.662Z,1.50
2024-01-20T13:45:38.313Z,1.50
2024-01-20T13:48:08.416Z,1.60
2024-01-20T13:50:37.026Z,1.50
2024-01-20T13:53:07.020Z,1.50
2024-01-20T13:55:35.623Z,1.50
2024-01-20T13:58:04.288Z,1.60
2024-01-20T14:00:32.950Z,1.50
2024-01-20T14:03:01.637Z,1.60
2024-01-20T14:05:30.291Z,1.60
2024-01-20T14:07:58.951Z,1.60
2024-01-20T14:10:28.846Z,1.60
2024-01-20T14:15:29.574Z,1.60
2024-01-20T14:17:58.293Z,1.60
2024-01-20T14:20:27.020Z,1.60
2024-01-20T14:22:55.496Z,1.60
2024-01-20T14:25:24.129Z,1.60
2024-01-20T14:27:53.957Z,1.60
2024-01-20T14:30:22.564Z,1.60
2024-01-20T14:32:51.453Z,1.60
2024-01-20T14:35:20.013Z,1.60
2024-01-20T14:37:48.588Z,1.60
2024-01-20T14:40:17.212Z,1.60
2024-01-20T14:42:45.787Z,1.60
2024-01-20T14:45:16.006Z,1.50
2024-01-20T14:50:14.650Z,1.50
2024-01-20T14:52:43.156Z,1.50
2024-01-20T14:57:40.960Z,1.50
2024-01-20T15:00:10.604Z,1.50
2024-01-20T15:02:40.963Z,1.50
2024-01-20T15:05:10.182Z,1.50
2024-01-20T15:07:38.678Z,1.50
2024-01-20T15:10:08.207Z,1.50
2024-01-20T15:12:36.882Z,1.40
2024-01-20T15:20:05.942Z,1.40
2024-01-20T15:22:34.488Z,1.40
2024-01-20T15:25:03.105Z,1.40
2024-01-20T15:27:31.776Z,1.40
2024-01-20T15:30:00.667Z,1.40
2024-01-20T15:32:29.458Z,1.40
2024-01-20T15:34:58.010Z,1.40
2024-01-20T15:37:27.942Z,1.40
2024-01-20T15:39:57.768Z,1.40
2024-01-20T15:44:55.086Z,1.40
2024-01-20T15:47:23.668Z,1.40
2024-01-20T15:49:52.629Z,1.30
2024-01-20T15:52:21.166Z,1.40
2024-01-20T15:54:51.044Z,1.40
2024-01-20T15:57:19.642Z,1.40
2024-01-20T15:59:48.163Z,1.40
2024-01-20T16:02:16.701Z,1.40
2024-01-20T16:04:46.110Z,1.30
2024-01-20T16:07:16.360Z,1.40
2024-01-20T16:09:45.200Z,1.40
2024-01-20T16:12:15.440Z,1.40
2024-01-20T16:14:44.121Z,1.40
2024-01-20T16:19:41.743Z,1.40
2024-01-20T16:22:10.309Z,1.40
2024-01-20T16:24:39.014Z,1.40
2024-01-20T16:27:08.018Z,1.40
2024-01-20T16:29:37.956Z,1.40
2024-01-20T16:32:10.648Z,1.40
2024-01-20T16:34:39.444Z,1.40
2024-01-20T16:37:09.204Z,1.40
2024-01-20T16:39:38.091Z,1.40
2024-01-20T16:42:06.833Z,1.40
2024-01-20T16:44:36.877Z,1.40
2024-01-20T16:47:06.100Z,1.40
2024-01-20T16:49:35.033Z,1.40
2024-01-20T16:52:03.889Z,1.40
2024-01-20T16:54:32.624Z,1.40
2024-01-20T16:57:02.113Z,1.50
2024-01-20T16:59:31.326Z,1.40
2024-01-20T17:02:01.599Z,1.40
2024-01-20T17:04:31.682Z,1.40
2024-01-20T17:07:01.169Z,1.30
2024-01-20T17:09:30.212Z,1.50
2024-01-20T17:11:58.838Z,1.40
2024-01-20T17:14:27.361Z,1.40
2024-01-20T17:16:55.986Z,1.40
2024-01-20T17:19:31.800Z,1.50
2024-01-20T17:22:00.725Z,1.50
2024-01-20T17:24:29.443Z,1.50
2024-01-20T17:26:58.106Z,1.50
2024-01-20T17:32:01.941Z,1.30
2024-01-20T17:34:32.347Z,1.40
2024-01-20T17:39:31.595Z,1.30
2024-01-20T17:42:01.824Z,1.40
2024-01-20T17:46:59.356Z,1.40
2024-01-20T17:49:28.107Z,1.40
2024-01-20T17:51:58.004Z,1.30
2024-01-20T17:54:28.733Z,1.50
2024-01-20T17:56:57.802Z,1.50
2024-01-20T17:59:26.585Z,1.50
2024-01-20T18:01:55.661Z,4.50
2024-01-20T18:04:24.760Z,1.50
2024-01-20T18:06:54.263Z,1.50
2024-01-20T18:09:25.398Z,1.50
2024-01-20T18:14:23.608Z,1.60
2024-01-20T18:19:21.686Z,1.60
2024-01-20T18:21:50.277Z,1.50
2024-01-20T18:24:18.940Z,1.50
2024-01-20T18:26:48.771Z,1.50
2024-01-20T18:29:17.549Z,1.50
2024-01-20T18:31:46.056Z,1.50
2024-01-20T18:34:14.733Z,1.50
2024-01-20T18:36:43.412Z,1.50
2024-01-20T18:39:12.111Z,1.40
2024-01-20T18:41:41.051Z,1.40
2024-01-20T18:44:10.872Z,1.40
2024-01-20T18:49:08.304Z,1.40
2024-01-20T18:51:36.896Z,1.40
2024-01-20T18:54:05.895Z,1.40
2024-01-20T18:56:34.500Z,1.40
2024-01-20T19:01:33.893Z,1.40
2024-01-20T19:04:02.514Z,1.30
2024-01-20T19:06:31.190Z,1.30
2024-01-20T19:08:59.842Z,1.30
2024-01-20T19:11:28.394Z,1.30
2024-01-20T19:13:57.795Z,1.30
2024-01-20T19:16:26.617Z,1.30
2024-01-20T19:18:56.554Z,1.30
2024-01-20T19:21:25.158Z,1.30
2024-01-20T19:23:53.648Z,1.20
2024-01-20T19:26:22.259Z,1.20
2024-01-20T19:28:50.746Z,1.20
2024-01-20T19:31:19.287Z,1.30
2024-01-20T19:33:48.557Z,1.20
2024-01-20T19:36:18.683Z,1.20
2024-01-20T19:38:47.422Z,1.20
2024-01-20T19:41:16.472Z,1.20
2024-01-20T19:43:45.734Z,1.20
2024-01-20T19:46:14.621Z,1.10
2024-01-20T19:51:12.081Z,1.10
2024-01-20T19:53:41.957Z,1.10
2024-01-20T19:56:10.554Z,1.10
2024-01-20T19:58:39.144Z,1.00
2024-01-20T20:01:08.270Z,1.00
2024-01-20T20:03:36.904Z,1.00
2024-01-20T20:06:05.640Z,1.00
2024-01-20T20:11:05.487Z,1.00
2024-01-20T20:13:34.016Z,1.00
2024-01-20T20:16:02.579Z,1.00
2024-01-20T20:18:34.089Z,1.00
2024-01-20T20:21:02.823Z,0.90
2024-01-20T20:23:32.732Z,0.90
2024-01-20T20:26:01.234Z,1.00
2024-01-20T20:28:31.085Z,0.90
2024-01-20T20:31:06.829Z,1.00
2024-01-20T20:33:38.416Z,0.90
2024-01-20T20:36:07.277Z,1.00
2024-01-20T20:38:35.952Z,0.90
2024-01-20T20:41:04.454Z,0.90
2024-01-20T20:43:35.769Z,0.80
2024-01-20T20:46:04.784Z,0.90
2024-01-20T20:48:33.385Z,0.90
2024-01-20T20:51:02.077Z,0.80
2024-01-20T20:53:31.352Z,0.90
2024-01-20T20:56:00.385Z,0.80
2024-01-20T20:58:29.517Z,0.80
2024-01-20T21:01:01.915Z,0.80
2024-01-20T21:03:30.852Z,0.80
2024-01-20T21:05:59.666Z,0.80
2024-01-20T21:08:28.243Z,0.80
2024-01-20T21:10:56.774Z,0.80
2024-01-20T21:15:54.260Z,0.70
2024-01-20T21:18:24.251Z,0.70
2024-01-20T21:20:52.959Z,0.70
2024-01-20T21:23:21.558Z,0.70
2024-01-20T21:25:50.221Z,0.60
2024-01-20T21:28:19.512Z,0.60
2024-01-20T21:30:48.210Z,0.60
2024-01-20T21:33:17.201Z,0.60
2024-01-20T21:35:47.140Z,0.60
2024-01-20T21:38:15.945Z,0.60
2024-01-20T21:43:16.785Z,0.60
2024-01-20T21:45:45.518Z,0.50
2024-01-20T21:48:14.917Z,0.50
2024-01-20T21:50:44.205Z,0.50
2024-01-20T21:53:14.483Z,0.50
2024-01-20T21:55:43.329Z,0.50
2024-01-20T22:00:41.381Z,0.40
2024-01-20T22:03:10.048Z,0.40
2024-01-20T22:05:39.587Z,0.40
2024-01-20T22:08:08.553Z,0.40
2024-01-20T22:10:38.449Z,0.40
2024-01-20T22:13:07.125Z,0.40
2024-01-20T22:15:35.701Z,0.40
2024-01-20T22:18:04.660Z,0.40
2024-01-20T22:23:03.357Z,0.40
2024-01-20T22:25:31.870Z,0.40
2024-01-20T22:28:01.749Z,0.40
2024-01-20T22:32:59.271Z,0.30
2024-01-20T22:35:30.609Z,0.40
2024-01-20T22:37:59.479Z,0.40
2024-01-20T22:42:58.313Z,0.40
2024-01-20T22:45:28.380Z,0.30
2024-01-20T22:47:57.075Z,0.20
2024-01-20T22:50:25.894Z,0.30
2024-01-20T22:55:23.342Z,0.30
2024-01-20T22:57:52.275Z,0.30
2024-01-20T23:00:26.983Z,0.20
2024-01-20T23:02:57.760Z,0.30
2024-01-20T23:05:27.161Z,0.30
2024-01-20T23:07:55.803Z,0.20
2024-01-20T23:10:24.389Z,0.30
2024-01-20T23:12:53.152Z,0.20
2024-01-20T23:15:21.814Z,0.20
2024-01-20T23:20:20.687Z,0.20
2024-01-20T23:22:49.701Z,0.30
2024-01-20T23:27:47.110Z,0.20
2024-01-20T23:30:16.016Z,0.30
2024-01-20T23:35:13.464Z,0.30
2024-01-20T23:37:43.318Z,0.30
2024-01-20T23:40:12.752Z,0.20
2024-01-20T23:42:41.350Z,0.20
2024-01-20T23:45:10.956Z,0.30
2024-01-20T23:50:09.060Z,0.30
2024-01-20T23:52:37.597Z,0.30
2024-01-20T23:55:08.357Z,0.30
2024-01-20T23:57:39.771Z,0.30
